sensor_id;sensor_type;location;lat;lon;timestamp;P1;durP1;ratioP1;P2;durP2;ratioP2
22111;SDS011;11222;50.872;4.312;2023-08-20T00:00:28;13.27;;;4.40;;
22111;SDS011;11222;50.872;4.312;2023-08-20T00:02:58;14.65;;;4.65;;
22111;SDS011;11222;50.872;4.312;2023-08-20T00:05:28;11.57;;;4.20;;
22111;SDS011;11222;50.872;4.312;2023-08-20T00:07:54;12.10;;;4.78;;
22111;SDS011;11222;50.872;4.312;2023-08-20T00:10:20;15.25;;;4.68;;
22111;SDS011;11222;50.872;4.312;2023-08-20T00:12:46;14.15;;;4.90;;
22111;SDS011;11222;50.872;4.312;2023-08-20T00:15:12;13.13;;;4.68;;
22111;SDS011;11222;50.872;4.312;2023-08-20T00:17:38;9.82;;;4.70;;
22111;SDS011;11222;50.872;4.312;2023-08-20T00:20:06;12.95;;;4.45;;
22111;SDS011;11222;50.872;4.312;2023-08-20T00:22:41;10.23;;;4.53;;
22111;SDS011;11222;50.872;4.312;2023-08-20T00:25:10;14.50;;;4.70;;
22111;SDS011;11222;50.872;4.312;2023-08-20T00:27:39;10.07;;;4.35;;
22111;SDS011;11222;50.872;4.312;2023-08-20T00:30:05;14.20;;;5.40;;
22111;SDS011;11222;50.872;4.312;2023-08-20T00:32:31;11.68;;;4.45;;
22111;SDS011;11222;50.872;4.312;2023-08-20T00:34:57;13.27;;;5.10;;
22111;SDS011;11222;50.872;4.312;2023-08-20T00:37:23;14.88;;;4.68;;
22111;SDS011;11222;50.872;4.312;2023-08-20T00:39:49;14.88;;;4.82;;
22111;SDS011;11222;50.872;4.312;2023-08-20T00:42:15;11.95;;;5.07;;
22111;SDS011;11222;50.872;4.312;2023-08-20T00:44:40;13.65;;;5.05;;
22111;SDS011;11222;50.872;4.312;2023-08-20T00:47:09;14.77;;;4.70;;
22111;SDS011;11222;50.872;4.312;2023-08-20T00:49:35;13.82;;;5.10;;
22111;SDS011;11222;50.872;4.312;2023-08-20T00:52:02;15.98;;;4.65;;
22111;SDS011;11222;50.872;4.312;2023-08-20T00:54:29;16.10;;;5.05;;
22111;SDS011;11222;50.872;4.312;2023-08-20T00:56:56;12.88;;;5.18;;
22111;SDS011;11222;50.872;4.312;2023-08-20T00:59:24;15.30;;;4.57;;
22111;SDS011;11222;50.872;4.312;2023-08-20T01:01:50;87.05;;;10.95;;
22111;SDS011;11222;50.872;4.312;2023-08-20T01:04:16;13.50;;;4.80;;
22111;SDS011;11222;50.872;4.312;2023-08-20T01:07:00;13.82;;;4.65;;
22111;SDS011;11222;50.872;4.312;2023-08-20T01:12:37;18.13;;;5.65;;
22111;SDS011;11222;50.872;4.312;2023-08-20T01:15:04;12.95;;;5.35;;
22111;SDS011;11222;50.872;4.312;2023-08-20T01:17:30;14.75;;;4.85;;
22111;SDS011;11222;50.872;4.312;2023-08-20T01:19:56;14.85;;;5.22;;
22111;SDS011;11222;50.872;4.312;2023-08-20T01:25:14;14.20;;;5.68;;
22111;SDS011;11222;50.872;4.312;2023-08-20T01:30:42;13.90;;;4.77;;
22111;SDS011;11222;50.872;4.312;2023-08-20T01:33:09;14.38;;;4.90;;
22111;SDS011;11222;50.872;4.312;2023-08-20T01:35:37;16.50;;;5.80;;
22111;SDS011;11222;50.872;4.312;2023-08-20T01:38:03;13.02;;;4.82;;
22111;SDS011;11222;50.872;4.312;2023-08-20T01:40:29;14.63;;;5.25;;
22111;SDS011;11222;50.872;4.312;2023-08-20T01:42:56;13.30;;;5.55;;
22111;SDS011;11222;50.872;4.312;2023-08-20T01:45:22;14.65;;;5.95;;
22111;SDS011;11222;50.872;4.312;2023-08-20T01:47:48;15.25;;;5.75;;
22111;SDS011;11222;50.872;4.312;2023-08-20T01:50:14;12.30;;;5.05;;
22111;SDS011;11222;50.872;4.312;2023-08-20T01:52:40;15.05;;;6.63;;
22111;SDS011;11222;50.872;4.312;2023-08-20T01:55:05;15.80;;;7.00;;
22111;SDS011;11222;50.872;4.312;2023-08-20T01:57:31;15.00;;;4.90;;
22111;SDS011;11222;50.872;4.312;2023-08-20T01:59:57;16.45;;;5.88;;
22111;SDS011;11222;50.872;4.312;2023-08-20T02:02:23;17.15;;;4.95;;
22111;SDS011;11222;50.872;4.312;2023-08-20T02:04:49;16.05;;;5.03;;
22111;SDS011;11222;50.872;4.312;2023-08-20T02:07:15;13.45;;;4.75;;
22111;SDS011;11222;50.872;4.312;2023-08-20T02:09:41;13.27;;;5.25;;
22111;SDS011;11222;50.872;4.312;2023-08-20T02:12:07;15.70;;;5.55;;
22111;SDS011;11222;50.872;4.312;2023-08-20T02:14:34;18.17;;;9.23;;
22111;SDS011;11222;50.872;4.312;2023-08-20T02:17:00;13.07;;;5.40;;
22111;SDS011;11222;50.872;4.312;2023-08-20T02:19:27;11.73;;;5.20;;
22111;SDS011;11222;50.872;4.312;2023-08-20T02:21:53;15.65;;;5.63;;
22111;SDS011;11222;50.872;4.312;2023-08-20T02:24:18;16.75;;;7.68;;
22111;SDS011;11222;50.872;4.312;2023-08-20T02:26:44;13.02;;;5.28;;
22111;SDS011;11222;50.872;4.312;2023-08-20T02:29:10;14.55;;;7.28;;
22111;SDS011;11222;50.872;4.312;2023-08-20T02:31:36;18.35;;;8.02;;
22111;SDS011;11222;50.872;4.312;2023-08-20T02:34:01;16.48;;;6.45;;
22111;SDS011;11222;50.872;4.312;2023-08-20T02:36:27;12.32;;;6.07;;
22111;SDS011;11222;50.872;4.312;2023-08-20T02:38:53;16.00;;;7.57;;
22111;SDS011;11222;50.872;4.312;2023-08-20T02:41:18;17.63;;;6.47;;
22111;SDS011;11222;50.872;4.312;2023-08-20T02:43:44;15.57;;;6.82;;
22111;SDS011;11222;50.872;4.312;2023-08-20T02:46:10;17.08;;;6.85;;
22111;SDS011;11222;50.872;4.312;2023-08-20T02:48:36;18.23;;;6.43;;
22111;SDS011;11222;50.872;4.312;2023-08-20T02:51:02;12.63;;;5.82;;
22111;SDS011;11222;50.872;4.312;2023-08-20T02:53:27;17.38;;;5.90;;
22111;SDS011;11222;50.872;4.312;2023-08-20T02:55:53;14.98;;;5.70;;
22111;SDS011;11222;50.872;4.312;2023-08-20T02:58:19;13.75;;;6.07;;
22111;SDS011;11222;50.872;4.312;2023-08-20T03:00:45;11.23;;;5.88;;
22111;SDS011;11222;50.872;4.312;2023-08-20T03:03:11;17.67;;;7.00;;
22111;SDS011;11222;50.872;4.312;2023-08-20T03:05:37;14.38;;;5.85;;
22111;SDS011;11222;50.872;4.312;2023-08-20T03:08:03;12.02;;;5.25;;
22111;SDS011;11222;50.872;4.312;2023-08-20T03:10:30;10.18;;;5.18;;
22111;SDS011;11222;50.872;4.312;2023-08-20T03:12:59;13.70;;;6.07;;
22111;SDS011;11222;50.872;4.312;2023-08-20T03:15:25;19.40;;;5.47;;
22111;SDS011;11222;50.872;4.312;2023-08-20T03:17:51;14.77;;;5.40;;
22111;SDS011;11222;50.872;4.312;2023-08-20T03:20:17;13.02;;;5.03;;
22111;SDS011;11222;50.872;4.312;2023-08-20T03:22:43;16.77;;;6.13;;
22111;SDS011;11222;50.872;4.312;2023-08-20T03:25:08;14.95;;;5.70;;
22111;SDS011;11222;50.872;4.312;2023-08-20T03:27:34;12.20;;;5.43;;
22111;SDS011;11222;50.872;4.312;2023-08-20T03:30:00;13.73;;;5.18;;
22111;SDS011;11222;50.872;4.312;2023-08-20T03:32:26;11.43;;;4.88;;
22111;SDS011;11222;50.872;4.312;2023-08-20T03:34:52;15.00;;;5.72;;
22111;SDS011;11222;50.872;4.312;2023-08-20T03:37:19;9.95;;;5.35;;
22111;SDS011;11222;50.872;4.312;2023-08-20T03:39:44;11.60;;;5.93;;
22111;SDS011;11222;50.872;4.312;2023-08-20T03:42:10;15.80;;;5.80;;
22111;SDS011;11222;50.872;4.312;2023-08-20T03:44:36;16.90;;;6.60;;
22111;SDS011;11222;50.872;4.312;2023-08-20T03:47:01;14.57;;;6.45;;
22111;SDS011;11222;50.872;4.312;2023-08-20T03:49:27;14.27;;;5.97;;
22111;SDS011;11222;50.872;4.312;2023-08-20T03:51:53;14.13;;;5.47;;
22111;SDS011;11222;50.872;4.312;2023-08-20T03:54:18;16.48;;;6.65;;
22111;SDS011;11222;50.872;4.312;2023-08-20T03:56:44;16.65;;;10.35;;
22111;SDS011;11222;50.872;4.312;2023-08-20T03:59:10;14.35;;;6.15;;
22111;SDS011;11222;50.872;4.312;2023-08-20T04:01:36;15.45;;;5.95;;
22111;SDS011;11222;50.872;4.312;2023-08-20T04:04:02;11.05;;;5.30;;
22111;SDS011;11222;50.872;4.312;2023-08-20T04:06:29;16.60;;;5.78;;
22111;SDS011;11222;50.872;4.312;2023-08-20T04:08:54;15.32;;;5.18;;
22111;SDS011;11222;50.872;4.312;2023-08-20T04:11:20;13.57;;;4.85;;
22111;SDS011;11222;50.872;4.312;2023-08-20T04:13:46;11.35;;;4.68;;
22111;SDS011;11222;50.872;4.312;2023-08-20T04:16:12;12.35;;;5.15;;
22111;SDS011;11222;50.872;4.312;2023-08-20T04:18:38;13.43;;;5.40;;
22111;SDS011;11222;50.872;4.312;2023-08-20T04:21:04;11.05;;;4.78;;
22111;SDS011;11222;50.872;4.312;2023-08-20T04:23:30;12.88;;;4.57;;
22111;SDS011;11222;50.872;4.312;2023-08-20T04:25:55;16.00;;;5.15;;
22111;SDS011;11222;50.872;4.312;2023-08-20T04:28:21;11.25;;;4.50;;
22111;SDS011;11222;50.872;4.312;2023-08-20T04:30:47;13.23;;;5.00;;
22111;SDS011;11222;50.872;4.312;2023-08-20T04:33:14;14.88;;;4.88;;
22111;SDS011;11222;50.872;4.312;2023-08-20T04:35:39;14.88;;;4.90;;
22111;SDS011;11222;50.872;4.312;2023-08-20T04:38:05;14.55;;;4.93;;
22111;SDS011;11222;50.872;4.312;2023-08-20T04:40:31;13.45;;;5.45;;
22111;SDS011;11222;50.872;4.312;2023-08-20T04:42:56;15.93;;;4.75;;
22111;SDS011;11222;50.872;4.312;2023-08-20T04:45:22;9.85;;;4.50;;
22111;SDS011;11222;50.872;4.312;2023-08-20T04:47:47;12.57;;;5.03;;
22111;SDS011;11222;50.872;4.312;2023-08-20T04:50:13;13.23;;;4.82;;
22111;SDS011;11222;50.872;4.312;2023-08-20T04:52:39;11.48;;;4.70;;
22111;SDS011;11222;50.872;4.312;2023-08-20T04:55:05;18.85;;;4.97;;
22111;SDS011;11222;50.872;4.312;2023-08-20T04:57:34;9.75;;;4.90;;
22111;SDS011;11222;50.872;4.312;2023-08-20T05:00:00;18.30;;;5.15;;
22111;SDS011;11222;50.872;4.312;2023-08-20T05:02:26;14.15;;;5.20;;
22111;SDS011;11222;50.872;4.312;2023-08-20T05:04:52;16.02;;;4.88;;
22111;SDS011;11222;50.872;4.312;2023-08-20T05:07:17;11.65;;;4.75;;
22111;SDS011;11222;50.872;4.312;2023-08-20T05:09:43;15.20;;;4.85;;
22111;SDS011;11222;50.872;4.312;2023-08-20T05:12:09;19.10;;;5.15;;
22111;SDS011;11222;50.872;4.312;2023-08-20T05:14:35;6.43;;;4.25;;
22111;SDS011;11222;50.872;4.312;2023-08-20T05:17:00;13.57;;;4.90;;
22111;SDS011;11222;50.872;4.312;2023-08-20T05:19:26;12.25;;;5.32;;
22111;SDS011;11222;50.872;4.312;2023-08-20T05:21:52;9.45;;;5.10;;
22111;SDS011;11222;50.872;4.312;2023-08-20T05:24:21;15.98;;;5.82;;
22111;SDS011;11222;50.872;4.312;2023-08-20T05:26:49;10.47;;;4.70;;
22111;SDS011;11222;50.872;4.312;2023-08-20T05:29:28;7.80;;;4.18;;
22111;SDS011;11222;50.872;4.312;2023-08-20T05:31:53;14.38;;;5.47;;
22111;SDS011;11222;50.872;4.312;2023-08-20T05:34:19;12.07;;;6.00;;
22111;SDS011;11222;50.872;4.312;2023-08-20T05:36:45;15.98;;;5.15;;
22111;SDS011;11222;50.872;4.312;2023-08-20T05:39:10;15.13;;;5.13;;
22111;SDS011;11222;50.872;4.312;2023-08-20T05:41:36;11.65;;;4.97;;
22111;SDS011;11222;50.872;4.312;2023-08-20T05:44:02;13.35;;;5.80;;
22111;SDS011;11222;50.872;4.312;2023-08-20T05:46:27;16.35;;;5.60;;
22111;SDS011;11222;50.872;4.312;2023-08-20T05:48:53;15.20;;;5.07;;
22111;SDS011;11222;50.872;4.312;2023-08-20T05:51:19;11.88;;;4.75;;
22111;SDS011;11222;50.872;4.312;2023-08-20T05:53:44;10.55;;;4.43;;
22111;SDS011;11222;50.872;4.312;2023-08-20T05:56:10;15.10;;;5.47;;
22111;SDS011;11222;50.872;4.312;2023-08-20T05:58:36;13.77;;;5.57;;
22111;SDS011;11222;50.872;4.312;2023-08-20T06:01:01;10.60;;;5.32;;
22111;SDS011;11222;50.872;4.312;2023-08-20T06:03:27;15.15;;;5.03;;
22111;SDS011;11222;50.872;4.312;2023-08-20T06:05:52;53.00;;;8.75;;
22111;SDS011;11222;50.872;4.312;2023-08-20T06:08:18;13.48;;;5.10;;
22111;SDS011;11222;50.872;4.312;2023-08-20T06:10:44;9.52;;;4.63;;
22111;SDS011;11222;50.872;4.312;2023-08-20T06:13:09;13.52;;;5.10;;
22111;SDS011;11222;50.872;4.312;2023-08-20T06:15:35;12.30;;;4.78;;
22111;SDS011;11222;50.872;4.312;2023-08-20T06:18:01;14.82;;;5.63;;
22111;SDS011;11222;50.872;4.312;2023-08-20T06:20:26;11.60;;;5.40;;
22111;SDS011;11222;50.872;4.312;2023-08-20T06:22:52;17.73;;;5.40;;
22111;SDS011;11222;50.872;4.312;2023-08-20T06:25:17;17.40;;;6.05;;
22111;SDS011;11222;50.872;4.312;2023-08-20T06:27:43;18.27;;;5.18;;
22111;SDS011;11222;50.872;4.312;2023-08-20T06:30:09;12.38;;;5.53;;
22111;SDS011;11222;50.872;4.312;2023-08-20T06:32:34;12.73;;;5.30;;
22111;SDS011;11222;50.872;4.312;2023-08-20T06:35:00;21.65;;;5.18;;
22111;SDS011;11222;50.872;4.312;2023-08-20T06:37:26;11.30;;;5.30;;
22111;SDS011;11222;50.872;4.312;2023-08-20T06:39:51;14.32;;;5.07;;
22111;SDS011;11222;50.872;4.312;2023-08-20T06:42:17;11.38;;;4.95;;
22111;SDS011;11222;50.872;4.312;2023-08-20T06:44:43;12.63;;;5.25;;
22111;SDS011;11222;50.872;4.312;2023-08-20T06:47:08;10.13;;;4.55;;
22111;SDS011;11222;50.872;4.312;2023-08-20T06:49:34;9.57;;;4.70;;
22111;SDS011;11222;50.872;4.312;2023-08-20T06:52:00;8.57;;;4.20;;
22111;SDS011;11222;50.872;4.312;2023-08-20T06:54:25;8.05;;;3.67;;
22111;SDS011;11222;50.872;4.312;2023-08-20T06:56:51;9.98;;;3.63;;
22111;SDS011;11222;50.872;4.312;2023-08-20T06:59:17;9.25;;;4.15;;
22111;SDS011;11222;50.872;4.312;2023-08-20T07:01:43;11.80;;;3.65;;
22111;SDS011;11222;50.872;4.312;2023-08-20T07:04:09;13.68;;;3.85;;
22111;SDS011;11222;50.872;4.312;2023-08-20T07:06:38;7.20;;;2.97;;
22111;SDS011;11222;50.872;4.312;2023-08-20T07:09:04;9.20;;;3.88;;
22111;SDS011;11222;50.872;4.312;2023-08-20T07:11:29;10.48;;;3.85;;
22111;SDS011;11222;50.872;4.312;2023-08-20T07:13:55;7.20;;;3.30;;
22111;SDS011;11222;50.872;4.312;2023-08-20T07:16:21;9.10;;;3.38;;
22111;SDS011;11222;50.872;4.312;2023-08-20T07:18:46;9.43;;;3.38;;
22111;SDS011;11222;50.872;4.312;2023-08-20T07:21:12;7.95;;;3.65;;
22111;SDS011;11222;50.872;4.312;2023-08-20T07:23:38;10.20;;;3.53;;
22111;SDS011;11222;50.872;4.312;2023-08-20T07:26:07;6.88;;;3.55;;
22111;SDS011;11222;50.872;4.312;2023-08-20T07:28:34;10.00;;;4.05;;
22111;SDS011;11222;50.872;4.312;2023-08-20T07:31:19;8.40;;;3.75;;
22111;SDS011;11222;50.872;4.312;2023-08-20T07:33:48;11.98;;;4.03;;
22111;SDS011;11222;50.872;4.312;2023-08-20T07:36:15;8.88;;;3.47;;
22111;SDS011;11222;50.872;4.312;2023-08-20T07:38:41;7.57;;;3.30;;
22111;SDS011;11222;50.872;4.312;2023-08-20T07:41:08;6.25;;;3.47;;
22111;SDS011;11222;50.872;4.312;2023-08-20T07:43:34;11.38;;;3.60;;
22111;SDS011;11222;50.872;4.312;2023-08-20T07:46:01;8.80;;;3.72;;
22111;SDS011;11222;50.872;4.312;2023-08-20T07:48:26;6.55;;;3.30;;
22111;SDS011;11222;50.872;4.312;2023-08-20T07:50:52;7.95;;;3.38;;
22111;SDS011;11222;50.872;4.312;2023-08-20T07:53:18;10.40;;;3.58;;
22111;SDS011;11222;50.872;4.312;2023-08-20T07:55:44;8.10;;;3.35;;
22111;SDS011;11222;50.872;4.312;2023-08-20T07:58:09;7.18;;;3.40;;
22111;SDS011;11222;50.872;4.312;2023-08-20T08:00:35;7.15;;;3.40;;
22111;SDS011;11222;50.872;4.312;2023-08-20T08:03:01;8.30;;;3.30;;
22111;SDS011;11222;50.872;4.312;2023-08-20T08:05:27;6.50;;;3.30;;
22111;SDS011;11222;50.872;4.312;2023-08-20T08:07:53;7.72;;;3.15;;
22111;SDS011;11222;50.872;4.312;2023-08-20T08:10:19;4.63;;;2.80;;
22111;SDS011;11222;50.872;4.312;2023-08-20T08:12:45;4.20;;;2.97;;
22111;SDS011;11222;50.872;4.312;2023-08-20T08:15:11;6.18;;;3.15;;
22111;SDS011;11222;50.872;4.312;2023-08-20T08:17:38;6.60;;;2.90;;
22111;SDS011;11222;50.872;4.312;2023-08-20T08:20:04;4.97;;;2.75;;
22111;SDS011;11222;50.872;4.312;2023-08-20T08:22:30;6.05;;;2.80;;
22111;SDS011;11222;50.872;4.312;2023-08-20T08:24:55;5.63;;;3.05;;
22111;SDS011;11222;50.872;4.312;2023-08-20T08:27:21;5.00;;;3.03;;
22111;SDS011;11222;50.872;4.312;2023-08-20T08:29:47;5.05;;;2.60;;
22111;SDS011;11222;50.872;4.312;2023-08-20T08:32:13;5.22;;;2.90;;
22111;SDS011;11222;50.872;4.312;2023-08-20T08:34:38;6.85;;;3.60;;
22111;SDS011;11222;50.872;4.312;2023-08-20T08:37:04;5.60;;;3.75;;
22111;SDS011;11222;50.872;4.312;2023-08-20T08:39:30;4.43;;;3.08;;
22111;SDS011;11222;50.872;4.312;2023-08-20T08:41:58;3.22;;;2.90;;
22111;SDS011;11222;50.872;4.312;2023-08-20T08:44:33;7.05;;;3.90;;
22111;SDS011;11222;50.872;4.312;2023-08-20T08:46:59;5.57;;;3.47;;
22111;SDS011;11222;50.872;4.312;2023-08-20T08:49:30;4.70;;;3.83;;
22111;SDS011;11222;50.872;4.312;2023-08-20T08:51:58;7.18;;;4.00;;
22111;SDS011;11222;50.872;4.312;2023-08-20T08:54:25;8.10;;;7.00;;
22111;SDS011;11222;50.872;4.312;2023-08-20T08:56:51;6.80;;;5.53;;
22111;SDS011;11222;50.872;4.312;2023-08-20T08:59:17;4.95;;;3.70;;
22111;SDS011;11222;50.872;4.312;2023-08-20T09:01:43;5.05;;;4.38;;
22111;SDS011;11222;50.872;4.312;2023-08-20T09:04:09;4.05;;;3.60;;
22111;SDS011;11222;50.872;4.312;2023-08-20T09:06:47;5.18;;;3.50;;
22111;SDS011;11222;50.872;4.312;2023-08-20T09:09:16;4.53;;;4.03;;
22111;SDS011;11222;50.872;4.312;2023-08-20T09:11:43;6.85;;;4.10;;
22111;SDS011;11222;50.872;4.312;2023-08-20T09:14:22;6.65;;;4.35;;
22111;SDS011;11222;50.872;4.312;2023-08-20T09:16:58;5.72;;;4.10;;
22111;SDS011;11222;50.872;4.312;2023-08-20T09:19:30;4.57;;;3.67;;
22111;SDS011;11222;50.872;4.312;2023-08-20T09:22:00;6.25;;;4.00;;
22111;SDS011;11222;50.872;4.312;2023-08-20T09:24:32;4.35;;;3.22;;
22111;SDS011;11222;50.872;4.312;2023-08-20T09:27:03;6.57;;;3.70;;
22111;SDS011;11222;50.872;4.312;2023-08-20T09:29:31;7.65;;;3.90;;
22111;SDS011;11222;50.872;4.312;2023-08-20T09:32:01;4.63;;;3.92;;
22111;SDS011;11222;50.872;4.312;2023-08-20T09:34:37;3.90;;;3.60;;
22111;SDS011;11222;50.872;4.312;2023-08-20T09:37:07;5.40;;;3.88;;
22111;SDS011;11222;50.872;4.312;2023-08-20T09:39:37;4.57;;;3.47;;
22111;SDS011;11222;50.872;4.312;2023-08-20T09:42:06;5.40;;;3.10;;
22111;SDS011;11222;50.872;4.312;2023-08-20T09:44:34;5.32;;;3.58;;
22111;SDS011;11222;50.872;4.312;2023-08-20T09:47:01;3.17;;;2.88;;
22111;SDS011;11222;50.872;4.312;2023-08-20T09:49:30;4.18;;;3.30;;
22111;SDS011;11222;50.872;4.312;2023-08-20T09:51:58;3.90;;;3.13;;
22111;SDS011;11222;50.872;4.312;2023-08-20T09:54:39;4.95;;;3.15;;
22111;SDS011;11222;50.872;4.312;2023-08-20T09:57:58;4.40;;;3.40;;
22111;SDS011;11222;50.872;4.312;2023-08-20T10:00:06;5.85;;;3.30;;
22111;SDS011;11222;50.872;4.312;2023-08-20T10:02:37;4.85;;;3.30;;
22111;SDS011;11222;50.872;4.312;2023-08-20T10:05:05;4.28;;;3.40;;
22111;SDS011;11222;50.872;4.312;2023-08-20T10:07:31;4.45;;;3.40;;
22111;SDS011;11222;50.872;4.312;2023-08-20T10:09:58;4.82;;;3.53;;
22111;SDS011;11222;50.872;4.312;2023-08-20T10:12:28;4.80;;;3.38;;
22111;SDS011;11222;50.872;4.312;2023-08-20T10:14:56;4.35;;;3.25;;
22111;SDS011;11222;50.872;4.312;2023-08-20T10:17:25;4.43;;;3.58;;
22111;SDS011;11222;50.872;4.312;2023-08-20T10:19:55;5.60;;;3.50;;
22111;SDS011;11222;50.872;4.312;2023-08-20T10:22:31;4.70;;;3.83;;
22111;SDS011;11222;50.872;4.312;2023-08-20T10:25:01;5.35;;;3.80;;
22111;SDS011;11222;50.872;4.312;2023-08-20T10:27:35;4.15;;;3.55;;
22111;SDS011;11222;50.872;4.312;2023-08-20T10:30:07;4.95;;;3.60;;
22111;SDS011;11222;50.872;4.312;2023-08-20T10:32:48;5.55;;;3.88;;
22111;SDS011;11222;50.872;4.312;2023-08-20T10:35:15;5.15;;;3.45;;
22111;SDS011;11222;50.872;4.312;2023-08-20T10:46:06;4.60;;;3.83;;
22111;SDS011;11222;50.872;4.312;2023-08-20T10:48:38;3.97;;;3.67;;
22111;SDS011;11222;50.872;4.312;2023-08-20T10:51:09;3.90;;;3.60;;
22111;SDS011;11222;50.872;4.312;2023-08-20T10:53:43;9.10;;;8.02;;
22111;SDS011;11222;50.872;4.312;2023-08-20T10:59:22;4.35;;;3.40;;
22111;SDS011;11222;50.872;4.312;2023-08-20T11:01:51;3.97;;;3.58;;
22111;SDS011;11222;50.872;4.312;2023-08-20T11:04:22;4.55;;;4.05;;
22111;SDS011;11222;50.872;4.312;2023-08-20T11:07:00;3.75;;;3.40;;
22111;SDS011;11222;50.872;4.312;2023-08-20T11:09:27;4.10;;;3.80;;
22111;SDS011;11222;50.872;4.312;2023-08-20T11:11:55;5.55;;;3.90;;
22111;SDS011;11222;50.872;4.312;2023-08-20T11:14:21;5.28;;;3.70;;
22111;SDS011;11222;50.872;4.312;2023-08-20T11:16:47;4.20;;;3.90;;
22111;SDS011;11222;50.872;4.312;2023-08-20T11:19:14;3.95;;;3.55;;
22111;SDS011;11222;50.872;4.312;2023-08-20T11:21:43;5.95;;;3.67;;
22111;SDS011;11222;50.872;4.312;2023-08-20T11:24:09;4.28;;;3.90;;
22111;SDS011;11222;50.872;4.312;2023-08-20T11:26:36;4.40;;;4.00;;
22111;SDS011;11222;50.872;4.312;2023-08-20T11:29:08;5.93;;;4.70;;
22111;SDS011;11222;50.872;4.312;2023-08-20T11:31:34;5.85;;;4.60;;
22111;SDS011;11222;50.872;4.312;2023-08-20T11:34:02;5.25;;;4.38;;
22111;SDS011;11222;50.872;4.312;2023-08-20T11:36:28;4.47;;;3.83;;
22111;SDS011;11222;50.872;4.312;2023-08-20T11:38:54;5.78;;;4.20;;
22111;SDS011;11222;50.872;4.312;2023-08-20T11:41:20;5.00;;;4.47;;
22111;SDS011;11222;50.872;4.312;2023-08-20T11:43:50;5.28;;;4.50;;
22111;SDS011;11222;50.872;4.312;2023-08-20T11:46:18;6.50;;;4.40;;
22111;SDS011;11222;50.872;4.312;2023-08-20T11:49:06;4.95;;;4.43;;
22111;SDS011;11222;50.872;4.312;2023-08-20T11:54:24;5.47;;;5.00;;
22111;SDS011;11222;50.872;4.312;2023-08-20T11:56:51;4.93;;;4.43;;
22111;SDS011;11222;50.872;4.312;2023-08-20T11:59:18;4.60;;;4.20;;
22111;SDS011;11222;50.872;4.312;2023-08-20T12:01:57;5.03;;;4.40;;
22111;SDS011;11222;50.872;4.312;2023-08-20T12:04:30;5.53;;;4.03;;
22111;SDS011;11222;50.872;4.312;2023-08-20T12:07:03;5.28;;;4.78;;
22111;SDS011;11222;50.872;4.312;2023-08-20T12:09:32;4.82;;;4.43;;
22111;SDS011;11222;50.872;4.312;2023-08-20T12:11:58;6.50;;;4.60;;
22111;SDS011;11222;50.872;4.312;2023-08-20T12:14:25;4.82;;;4.30;;
22111;SDS011;11222;50.872;4.312;2023-08-20T12:16:51;6.03;;;4.90;;
22111;SDS011;11222;50.872;4.312;2023-08-20T12:19:18;6.28;;;4.13;;
22111;SDS011;11222;50.872;4.312;2023-08-20T12:21:44;5.80;;;4.30;;
22111;SDS011;11222;50.872;4.312;2023-08-20T12:24:10;4.63;;;3.63;;
22111;SDS011;11222;50.872;4.312;2023-08-20T12:26:36;5.28;;;4.72;;
22111;SDS011;11222;50.872;4.312;2023-08-20T12:29:03;5.05;;;3.85;;
22111;SDS011;11222;50.872;4.312;2023-08-20T12:31:28;4.00;;;3.67;;
22111;SDS011;11222;50.872;4.312;2023-08-20T12:33:54;4.55;;;3.65;;
22111;SDS011;11222;50.872;4.312;2023-08-20T12:36:20;5.43;;;3.83;;
22111;SDS011;11222;50.872;4.312;2023-08-20T12:38:45;5.50;;;4.05;;
22111;SDS011;11222;50.872;4.312;2023-08-20T12:41:11;5.03;;;4.13;;
22111;SDS011;11222;50.872;4.312;2023-08-20T12:43:37;4.72;;;4.20;;
22111;SDS011;11222;50.872;4.312;2023-08-20T12:46:03;4.60;;;4.18;;
22111;SDS011;11222;50.872;4.312;2023-08-20T12:48:29;7.15;;;4.28;;
22111;SDS011;11222;50.872;4.312;2023-08-20T12:50:55;3.90;;;3.60;;
22111;SDS011;11222;50.872;4.312;2023-08-20T12:53:21;4.63;;;4.13;;
22111;SDS011;11222;50.872;4.312;2023-08-20T12:55:46;6.53;;;4.32;;
22111;SDS011;11222;50.872;4.312;2023-08-20T12:58:12;5.22;;;3.90;;
22111;SDS011;11222;50.872;4.312;2023-08-20T13:00:38;4.95;;;3.90;;
22111;SDS011;11222;50.872;4.312;2023-08-20T13:03:04;4.57;;;3.70;;
22111;SDS011;11222;50.872;4.312;2023-08-20T13:05:30;5.88;;;3.75;;
22111;SDS011;11222;50.872;4.312;2023-08-20T13:07:56;5.35;;;4.18;;
22111;SDS011;11222;50.872;4.312;2023-08-20T13:10:22;7.47;;;3.95;;
22111;SDS011;11222;50.872;4.312;2023-08-20T13:12:49;5.05;;;3.78;;
22111;SDS011;11222;50.872;4.312;2023-08-20T13:15:18;4.95;;;3.40;;
22111;SDS011;11222;50.872;4.312;2023-08-20T13:17:46;5.25;;;3.70;;
22111;SDS011;11222;50.872;4.312;2023-08-20T13:20:13;5.80;;;4.10;;
22111;SDS011;11222;50.872;4.312;2023-08-20T13:22:39;6.88;;;3.65;;
22111;SDS011;11222;50.872;4.312;2023-08-20T13:25:05;7.60;;;4.13;;
22111;SDS011;11222;50.872;4.312;2023-08-20T13:27:31;5.93;;;4.00;;
22111;SDS011;11222;50.872;4.312;2023-08-20T13:29:57;4.57;;;3.38;;
22111;SDS011;11222;50.872;4.312;2023-08-20T13:32:23;6.25;;;3.40;;
22111;SDS011;11222;50.872;4.312;2023-08-20T13:34:49;6.30;;;4.22;;
22111;SDS011;11222;50.872;4.312;2023-08-20T13:37:15;5.88;;;3.70;;
22111;SDS011;11222;50.872;4.312;2023-08-20T13:39:41;5.25;;;3.30;;
22111;SDS011;11222;50.872;4.312;2023-08-20T13:42:07;7.25;;;3.75;;
22111;SDS011;11222;50.872;4.312;2023-08-20T13:44:32;6.57;;;3.92;;
22111;SDS011;11222;50.872;4.312;2023-08-20T13:46:58;4.15;;;3.28;;
22111;SDS011;11222;50.872;4.312;2023-08-20T13:49:24;3.90;;;3.53;;
22111;SDS011;11222;50.872;4.312;2023-08-20T13:51:50;3.92;;;3.47;;
22111;SDS011;11222;50.872;4.312;2023-08-20T13:54:16;7.28;;;3.60;;
22111;SDS011;11222;50.872;4.312;2023-08-20T13:56:41;4.30;;;3.20;;
22111;SDS011;11222;50.872;4.312;2023-08-20T13:59:09;3.65;;;3.13;;
22111;SDS011;11222;50.872;4.312;2023-08-20T14:01:35;4.03;;;3.72;;
22111;SDS011;11222;50.872;4.312;2023-08-20T14:04:01;5.63;;;3.72;;
22111;SDS011;11222;50.872;4.312;2023-08-20T14:06:27;4.07;;;3.45;;
22111;SDS011;11222;50.872;4.312;2023-08-20T14:08:52;5.35;;;4.10;;
22111;SDS011;11222;50.872;4.312;2023-08-20T14:11:18;4.40;;;3.75;;
22111;SDS011;11222;50.872;4.312;2023-08-20T14:13:44;3.95;;;3.20;;
22111;SDS011;11222;50.872;4.312;2023-08-20T14:16:10;3.50;;;3.10;;
22111;SDS011;11222;50.872;4.312;2023-08-20T14:18:35;3.92;;;3.53;;
22111;SDS011;11222;50.872;4.312;2023-08-20T14:21:01;8.63;;;3.85;;
22111;SDS011;11222;50.872;4.312;2023-08-20T14:23:28;6.07;;;3.70;;
22111;SDS011;11222;50.872;4.312;2023-08-20T14:25:54;5.90;;;3.67;;
22111;SDS011;11222;50.872;4.312;2023-08-20T14:28:20;4.88;;;3.50;;
22111;SDS011;11222;50.872;4.312;2023-08-20T14:30:47;6.18;;;3.50;;
22111;SDS011;11222;50.872;4.312;2023-08-20T14:33:15;7.63;;;4.82;;
22111;SDS011;11222;50.872;4.312;2023-08-20T14:35:40;7.63;;;3.53;;
22111;SDS011;11222;50.872;4.312;2023-08-20T14:38:06;4.82;;;3.58;;
22111;SDS011;11222;50.872;4.312;2023-08-20T14:40:35;4.90;;;3.35;;
22111;SDS011;11222;50.872;4.312;2023-08-20T14:43:01;3.78;;;3.40;;
22111;SDS011;11222;50.872;4.312;2023-08-20T14:45:28;4.35;;;3.58;;
22111;SDS011;11222;50.872;4.312;2023-08-20T14:47:54;3.60;;;3.30;;
22111;SDS011;11222;50.872;4.312;2023-08-20T14:50:19;3.83;;;3.08;;
22111;SDS011;11222;50.872;4.312;2023-08-20T14:52:45;7.20;;;3.58;;
22111;SDS011;11222;50.872;4.312;2023-08-20T14:55:16;4.28;;;3.42;;
22111;SDS011;11222;50.872;4.312;2023-08-20T14:57:45;5.13;;;3.10;;
22111;SDS011;11222;50.872;4.312;2023-08-20T15:00:12;4.65;;;3.05;;
22111;SDS011;11222;50.872;4.312;2023-08-20T15:02:42;5.70;;;3.20;;